Time;durP1;ratioP1;P1;durP2;ratioP2;P2;SDS_P1;SDS_P2;PMS_P1;PMS_P2;Temp;Humidity;BMP_temperature;BMP_pressure;BME280_temperature;BME280_humidity;BME280_pressure;Samples;Min_cycle;Max_cycle;Signal;HPM_P1;HPM_P2
2022/02/04 00:24:19;;;;;;;38.22;22.27;;;9.10;88.80;;;;;;6126566;22;96534;-72
2022/02/04 00:26:55;;;;;;;36.17;21.52;;;9.10;88.80;;;;;;6129258;22;95257;-72
2022/02/04 00:29:31;;;;;;;38.97;22.75;;;9.00;88.80;;;;;;6128394;22;92433;-72
2022/02/04 00:32:04;;;;;;;35.38;22.13;;;9.00;88.90;;;;;;6154674;22;92413;-72
2022/02/04 00:34:39;;;;;;;36.50;21.20;;;9.00;88.90;;;;;;6129909;22;93301;-72
2022/02/04 00:37:35;;;;;;;39.95;22.05;;;9.00;88.90;;;;;;6127981;22;95702;-73
2022/02/04 00:39:57;;;;;;;35.35;21.10;;;8.90;89.00;;;;;;6153106;22;92499;-72
2022/02/04 00:42:24;;;;;;;35.13;20.85;;;8.90;89.20;;;;;;6128926;22;92320;-72
2022/02/04 00:44:59;;;;;;;38.95;22.40;;;8.90;89.20;;;;;;6128437;22;93476;-72
2022/02/04 00:47:53;;;;;;;34.22;21.10;;;8.90;89.10;;;;;;6128404;22;95218;-72
2022/02/04 00:50:48;;;;;;;36.92;21.73;;;8.90;89.20;;;;;;6153515;22;94671;-72
2022/02/04 00:53:23;;;;;;;40.35;21.35;;;8.90;89.30;;;;;;6154611;22;92303;-72
2022/02/04 00:56:08;;;;;;;34.50;20.58;;;8.90;89.40;;;;;;6103424;22;97091;-72
2022/02/04 01:26:19;;;;;;;36.47;20.63;;;8.80;88.50;;;;;;6127734;22;94078;-72
2022/02/04 01:28:47;;;;;;;34.25;20.77;;;8.80;88.90;;;;;;6128633;22;93244;-72
2022/02/04 01:31:17;;;;;;;35.35;20.38;;;8.70;88.90;;;;;;6154411;22;92851;-72
2022/02/04 01:33:46;;;;;;;39.20;20.88;;;8.70;88.90;;;;;;6127664;22;92445;-72
2022/02/04 01:36:14;;;;;;;34.60;21.23;;;8.60;88.90;;;;;;6127769;22;91664;-72
2022/02/04 01:38:41;;;;;;;37.97;20.60;;;8.60;89.20;;;;;;6127334;22;94920;-72
2022/02/04 01:41:08;;;;;;;39.15;21.65;;;8.50;89.30;;;;;;6102701;22;95463;-72
2022/02/04 01:43:37;;;;;;;34.03;19.25;;;8.50;89.40;;;;;;6126545;22;94847;-72
2022/02/04 01:46:08;;;;;;;34.88;19.80;;;8.50;89.20;;;;;;6127353;22;92533;-72
2022/02/04 01:48:37;;;;;;;36.60;20.83;;;8.40;89.60;;;;;;6154535;22;92449;-72
2022/02/04 01:51:05;;;;;;;31.83;19.25;;;8.40;89.50;;;;;;6128079;22;92546;-72
2022/02/04 01:53:32;;;;;;;33.45;18.13;;;8.40;89.50;;;;;;6128086;22;92602;-72
2022/02/04 01:56:05;;;;;;;37.53;20.83;;;8.30;89.40;;;;;;6128257;22;92403;-72
2022/02/04 01:58:33;;;;;;;34.80;19.38;;;8.20;89.80;;;;;;6127935;22;93195;-72
2022/02/04 02:01:00;;;;;;;35.50;20.13;;;8.20;89.80;;;;;;6154721;22;93115;-72
2022/02/04 02:03:27;;;;;;;31.90;18.98;;;8.20;89.90;;;;;;6103201;22;92447;-72
2022/02/04 02:05:59;;;;;;;31.77;17.88;;;8.20;89.90;;;;;;6128414;22;92452;-72
2022/02/04 02:08:26;;;;;;;33.65;18.92;;;8.30;89.60;;;;;;6127315;22;95648;-72
2022/02/04 02:10:53;;;;;;;33.92;19.30;;;8.30;89.70;;;;;;6128057;22;95426;-72
2022/02/04 02:13:30;;;;;;;31.30;18.75;;;8.30;89.70;;;;;;6153979;22;92438;-72
2022/02/04 02:16:20;;;;;;;31.92;19.17;;;8.30;89.80;;;;;;6154469;22;92364;-72
2022/02/04 02:36:42;;;;;;;33.25;20.00;;;8.60;89.70;;;;;;6127297;22;94819;-72
2022/02/04 02:46:36;;;;;;;33.45;19.17;;;8.70;89.40;;;;;;6128876;22;92867;-72
2022/02/04 02:49:32;;;;;;;31.83;19.13;;;8.70;89.40;;;;;;6128727;22;92814;-72
2022/02/04 02:54:51;;;;;;;32.53;19.30;;;8.70;89.30;;;;;;6155488;22;93057;-72
2022/02/04 03:00:14;;;;;;;36.35;19.95;;;8.70;89.90;;;;;;6133302;22;92455;-72
2022/02/04 03:02:42;;;;;;;34.25;19.83;;;8.80;89.20;;;;;;6153674;22;95687;-72
2022/02/04 03:05:09;;;;;;;33.05;19.08;;;8.80;89.20;;;;;;6128316;22;97932;-72
2022/02/04 03:07:36;;;;;;;32.78;18.33;;;8.80;89.10;;;;;;6104195;22;92474;-72
2022/02/04 03:10:03;;;;;;;35.55;19.42;;;8.80;89.10;;;;;;6128617;22;92875;-72
2022/02/04 03:12:31;;;;;;;35.50;19.90;;;8.80;89.00;;;;;;6128563;22;93110;-72
2022/02/04 03:14:59;;;;;;;33.08;20.38;;;8.80;89.00;;;;;;6155139;22;92883;-72
2022/02/04 03:17:26;;;;;;;34.88;19.80;;;8.80;89.00;;;;;;6155043;22;92358;-72
2022/02/04 03:19:58;;;;;;;36.38;20.27;;;8.80;88.90;;;;;;6129149;22;91767;-73
2022/02/04 03:22:25;;;;;;;36.75;20.60;;;8.80;88.90;;;;;;6103914;22;95685;-72
2022/02/04 03:24:59;;;;;;;33.20;20.38;;;8.90;89.00;;;;;;6128760;22;93155;-72
2022/02/04 03:27:33;;;;;;;37.45;21.38;;;8.90;89.00;;;;;;6153731;22;94890;-72
2022/02/04 03:30:07;;;;;;;35.25;20.23;;;8.90;89.10;;;;;;6155411;22;92462;-72
2022/02/04 03:32:38;;;;;;;33.55;20.25;;;8.90;89.20;;;;;;6128059;22;95709;-72
2022/02/04 03:35:05;;;;;;;34.72;20.90;;;8.90;89.10;;;;;;6155126;22;93103;-73
2022/02/04 03:37:32;;;;;;;33.97;20.30;;;8.90;89.20;;;;;;6103043;22;92269;-72
2022/02/04 03:39:59;;;;;;;34.08;20.75;;;8.90;89.20;;;;;;6155245;22;92362;-72
2022/02/04 03:42:26;;;;;;;37.78;21.33;;;8.90;89.20;;;;;;6154612;22;93084;-72
2022/02/04 03:44:53;;;;;;;34.40;20.25;;;8.90;89.10;;;;;;6104462;22;96862;-72
2022/02/04 03:47:20;;;;;;;32.42;19.98;;;8.90;89.30;;;;;;6154913;22;92443;-72
2022/02/04 03:49:47;;;;;;;35.42;21.35;;;8.90;89.30;;;;;;6128982;22;92989;-72
2022/02/04 03:52:14;;;;;;;33.67;20.58;;;8.90;89.40;;;;;;6153368;22;95671;-72
2022/02/04 03:54:41;;;;;;;35.10;20.52;;;9.00;89.40;;;;;;6128291;22;95308;-72
2022/02/04 03:57:08;;;;;;;32.40;20.23;;;9.00;89.60;;;;;;6128430;22;92408;-72
2022/02/04 03:59:35;;;;;;;34.10;20.48;;;9.00;89.90;;;;;;6154865;22;92427;-73
2022/02/04 04:02:02;;;;;;;32.53;20.08;;;9.00;89.60;;;;;;6103450;22;95654;-72
2022/02/04 04:04:32;;;;;;;32.55;18.95;;;9.00;89.60;;;;;;6128246;22;93140;-72
2022/02/04 04:07:00;;;;;;;35.10;21.67;;;9.10;89.70;;;;;;6104370;22;92584;-72
2022/02/04 04:09:28;;;;;;;33.78;20.75;;;9.10;89.60;;;;;;6103863;22;91706;-72
2022/02/04 04:11:55;;;;;;;35.53;21.92;;;9.10;89.40;;;;;;6155083;22;92922;-72
2022/02/04 04:14:22;;;;;;;34.17;21.40;;;9.10;89.60;;;;;;6127609;22;95785;-72
2022/02/04 04:16:49;;;;;;;35.75;22.20;;;9.10;89.30;;;;;;6127198;22;94914;-72
2022/02/04 04:19:16;;;;;;;33.33;20.67;;;9.20;89.40;;;;;;6155234;22;92583;-72
2022/02/04 04:21:43;;;;;;;32.28;19.85;;;9.20;89.50;;;;;;6128348;22;93183;-72
2022/02/04 04:24:10;;;;;;;34.83;20.88;;;9.20;89.30;;;;;;6154440;22;103633;-72
2022/02/04 04:26:38;;;;;;;30.42;20.67;;;9.20;89.10;;;;;;6103612;22;92483;-72
2022/02/04 04:29:05;;;;;;;31.23;19.70;;;9.20;89.30;;;;;;6128993;22;92451;-72
2022/02/04 04:31:32;;;;;;;30.90;20.50;;;9.30;89.20;;;;;;6103156;22;96172;-72
2022/02/04 04:33:59;;;;;;;30.02;20.17;;;9.20;89.10;;;;;;6155196;22;93138;-72
2022/02/04 04:36:26;;;;;;;29.67;20.27;;;9.30;89.30;;;;;;6154736;22;92379;-72
2022/02/04 04:39:17;;;;;;;30.95;20.77;;;9.30;89.10;;;;;;6128279;22;92465;-72
2022/02/04 05:28:10;;;;;;;30.92;21.85;;;9.40;88.70;;;;;;6132430;22;92859;-72
2022/02/04 05:30:38;;;;;;;31.60;21.77;;;9.40;88.70;;;;;;6107183;22;92468;-72
2022/02/04 05:33:05;;;;;;;29.83;20.73;;;9.40;88.80;;;;;;6154674;22;92468;-72
2022/02/04 05:35:32;;;;;;;32.78;22.17;;;9.40;89.20;;;;;;6152516;22;99138;-72
2022/02/04 05:38:00;;;;;;;32.78;21.75;;;9.40;88.90;;;;;;6154373;22;95372;-72
2022/02/04 05:40:30;;;;;;;32.22;20.70;;;9.40;89.20;;;;;;6154131;22;104595;-72
2022/02/04 05:43:02;;;;;;;29.95;20.88;;;9.50;89.00;;;;;;6154402;22;92489;-72
2022/02/04 05:45:32;;;;;;;28.42;20.88;;;9.50;88.90;;;;;;6154629;22;92860;-72
2022/02/04 05:48:04;;;;;;;29.60;21.20;;;9.50;89.00;;;;;;6129032;22;95486;-72
2022/02/04 05:50:41;;;;;;;27.58;20.67;;;9.50;88.80;;;;;;6128317;22;92447;-72
2022/02/04 05:53:17;;;;;;;28.20;19.75;;;9.50;88.80;;;;;;6155034;22;91679;-72
2022/02/04 06:01:40;;;;;;;27.88;19.75;;;9.50;88.60;;;;;;6125979;22;94870;-72
2022/02/04 06:24:38;;;;;;;25.13;18.73;;;9.50;88.10;;;;;;6127833;22;93280;-72
2022/02/04 06:27:05;;;;;;;23.85;17.98;;;9.50;88.50;;;;;;6125731;22;98103;-72
2022/02/04 06:29:32;;;;;;;26.23;19.80;;;9.50;88.30;;;;;;6154064;22;94243;-72
2022/02/04 06:31:59;;;;;;;23.58;19.70;;;9.50;88.20;;;;;;6127066;22;92464;-72
2022/02/04 06:34:26;;;;;;;25.60;18.73;;;9.40;88.30;;;;;;6127366;22;92448;-72
2022/02/04 06:36:53;;;;;;;26.88;21.02;;;9.50;88.10;;;;;;6127361;22;93231;-72
2022/02/04 06:39:20;;;;;;;27.88;19.08;;;9.40;88.10;;;;;;6127764;22;92954;-73
2022/02/04 06:41:47;;;;;;;23.60;18.98;;;9.50;88.10;;;;;;6126419;22;102234;-72
2022/02/04 06:44:14;;;;;;;22.58;17.70;;;9.50;87.90;;;;;;6154551;22;91645;-72
2022/02/04 06:46:41;;;;;;;24.38;17.85;;;9.40;88.00;;;;;;6102626;22;93478;-72
2022/02/04 06:49:08;;;;;;;26.90;18.20;;;9.50;87.90;;;;;;6127664;22;92961;-72
2022/02/04 06:51:35;;;;;;;24.23;18.67;;;9.50;87.80;;;;;;6126288;22;95200;-72
2022/02/04 06:54:02;;;;;;;23.52;17.58;;;9.50;88.10;;;;;;6126889;22;92548;-73
2022/02/04 06:56:33;;;;;;;23.65;18.48;;;9.50;88.00;;;;;;6127660;22;92433;-72
2022/02/04 06:59:01;;;;;;;26.65;17.98;;;9.50;87.80;;;;;;6153557;22;93065;-72
2022/02/04 07:01:29;;;;;;;21.75;17.60;;;9.50;87.70;;;;;;6102326;22;92548;-72
2022/02/04 07:03:56;;;;;;;19.77;15.85;;;9.50;87.50;;;;;;6153649;22;92372;-73
2022/02/04 07:06:24;;;;;;;25.65;17.20;;;9.50;87.30;;;;;;6102336;22;95735;-72
2022/02/04 07:21:48;;;;;;;22.83;16.45;;;9.60;87.30;;;;;;6155075;22;92743;-72
2022/02/04 07:24:15;;;;;;;19.63;15.73;;;9.50;87.20;;;;;;6128902;22;92604;-73
2022/02/04 07:26:42;;;;;;;21.42;14.75;;;9.60;87.40;;;;;;6128218;22;98602;-72
2022/02/04 07:29:13;;;;;;;20.58;16.35;;;9.60;87.30;;;;;;6155201;22;93139;-72
2022/02/04 07:31:41;;;;;;;19.60;15.38;;;9.60;87.10;;;;;;6128806;22;92392;-72
2022/02/04 07:42:18;;;;;;;17.63;13.65;;;9.60;86.90;;;;;;6126958;22;95123;-73
2022/02/04 07:44:45;;;;;;;17.65;14.20;;;9.60;86.70;;;;;;6104153;22;92367;-72
2022/02/04 07:47:12;;;;;;;16.70;13.82;;;9.70;86.70;;;;;;6127936;22;95892;-72
2022/02/04 07:49:39;;;;;;;16.40;13.60;;;9.70;87.10;;;;;;6127880;22;93968;-73
2022/02/04 07:52:06;;;;;;;17.48;13.15;;;9.70;86.70;;;;;;6154700;22;92333;-73
2022/02/04 07:54:32;;;;;;;15.85;13.10;;;9.70;86.30;;;;;;6155028;22;92420;-72
2022/02/04 07:56:59;;;;;;;15.77;14.07;;;9.80;86.20;;;;;;6154818;22;93203;-72
2022/02/04 07:59:32;;;;;;;16.80;14.05;;;9.80;86.00;;;;;;6130509;22;93133;-72
2022/02/04 08:01:59;;;;;;;15.60;13.07;;;9.80;85.80;;;;;;6127955;22;92500;-72
2022/02/04 08:04:30;;;;;;;15.90;11.63;;;9.80;85.70;;;;;;6128833;22;92935;-73
2022/02/04 08:07:04;;;;;;;19.33;12.18;;;9.80;85.60;;;;;;6102730;22;95571;-73
2022/02/04 08:10:03;;;;;;;14.07;11.73;;;9.80;85.60;;;;;;6128036;22;97798;-73
2022/02/04 08:12:43;;;;;;;13.52;12.13;;;9.90;85.80;;;;;;6154779;22;92749;-73
2022/02/04 08:18:12;;;;;;;13.48;11.35;;;9.80;85.60;;;;;;6128918;22;95661;-73
2022/02/04 08:31:17;;;;;;;11.50;10.30;;;10.00;85.20;;;;;;6128366;22;92847;-73
2022/02/04 08:55:56;;;;;;;10.57;8.40;;;10.40;83.40;;;;;;6093002;23;92535;-74
2022/02/04 08:58:30;;;;;;;11.82;9.23;;;10.50;83.10;;;;;;6093550;23;92755;-74
2022/02/04 09:01:17;;;;;;;11.23;8.75;;;10.50;82.90;;;;;;6102805;22;98321;-74
2022/02/04 09:06:21;;;;;;;11.27;8.02;;;10.70;82.00;;;;;;6155237;22;92404;-74
2022/02/04 09:08:55;;;;;;;10.07;8.68;;;10.80;81.90;;;;;;6131027;22;92436;-74
2022/02/04 09:19:26;;;;;;;10.55;8.95;;;10.90;81.40;;;;;;6155888;22;91547;-74
2022/02/04 09:24:23;;;;;;;8.98;8.00;;;10.90;81.10;;;;;;6127925;22;95858;-74
2022/02/04 09:26:53;;;;;;;9.88;8.30;;;10.90;81.00;;;;;;6127181;22;94831;-74
2022/02/04 09:29:21;;;;;;;8.50;7.63;;;10.90;81.10;;;;;;6104390;22;92447;-74
2022/02/04 09:31:48;;;;;;;10.63;8.95;;;11.00;81.20;;;;;;6128336;22;95733;-74
2022/02/04 09:34:15;;;;;;;8.73;7.82;;;11.00;81.30;;;;;;6126719;22;109268;-73
2022/02/04 09:36:42;;;;;;;10.05;8.75;;;11.00;81.00;;;;;;6128785;22;92465;-74
2022/02/04 09:39:10;;;;;;;8.77;7.65;;;11.10;80.50;;;;;;6128721;22;92373;-74
2022/02/04 09:41:37;;;;;;;9.57;8.38;;;11.10;80.40;;;;;;6154854;22;93169;-74
2022/02/04 09:44:04;;;;;;;9.30;8.40;;;11.20;80.40;;;;;;6155705;22;93042;-74
2022/02/04 09:46:36;;;;;;;9.68;8.77;;;11.20;80.50;;;;;;6081241;22;92757;-74
2022/02/04 09:49:07;;;;;;;9.35;8.23;;;11.20;80.60;;;;;;6155266;22;92400;-74
2022/02/04 09:51:54;;;;;;;11.88;8.02;;;11.30;80.40;;;;;;6153535;22;95605;-74
2022/02/04 10:06:59;;;;;;;10.40;9.30;;;11.30;80.40;;;;;;6128408;22;95665;-73
2022/02/04 10:09:06;;;;;;;10.95;9.20;;;11.20;80.50;;;;;;6144540;22;92513;-73
2022/02/04 10:15:21;;;;;;;10.57;9.60;;;11.20;80.70;;;;;;6129919;22;93185;-73
2022/02/04 10:19:49;;;;;;;10.32;9.43;;;11.30;80.60;;;;;;6153627;22;94710;-73
2022/02/04 10:22:26;;;;;;;10.07;9.15;;;11.30;80.30;;;;;;6128278;22;92401;-73
2022/02/04 10:25:09;;;;;;;10.48;9.48;;;11.40;80.00;;;;;;6128128;22;95840;-73
2022/02/04 10:27:47;;;;;;;10.53;9.50;;;11.50;80.10;;;;;;6128354;22;94352;-73
2022/02/04 10:30:15;;;;;;;10.80;9.70;;;11.40;80.00;;;;;;6127938;22;92532;-74
2022/02/04 10:32:49;;;;;;;9.27;8.43;;;11.50;80.00;;;;;;6129202;22;92379;-74
2022/02/04 10:35:27;;;;;;;9.10;8.30;;;11.50;79.50;;;;;;6154393;22;93277;-74
2022/02/04 10:38:02;;;;;;;8.90;8.07;;;11.60;79.30;;;;;;6155272;22;93026;-74
2022/02/04 10:40:45;;;;;;;9.10;8.13;;;11.70;79.00;;;;;;6128159;22;92585;-74
2022/02/04 10:51:47;;;;;;;9.05;7.78;;;11.80;78.80;;;;;;6155992;22;92389;-72
2022/02/04 11:00:20;;;;;;;8.30;7.60;;;11.90;77.70;;;;;;6101532;22;95078;-72
2022/02/04 11:05:21;;;;;;;6.78;6.13;;;12.00;77.70;;;;;;6156164;22;91634;-73
2022/02/04 11:08:30;;;;;;;8.35;7.65;;;12.00;77.00;;;;;;6155851;22;93010;-73
2022/02/04 11:36:12;;;;;;;;;;;11.90;77.80;;;;;;6133549;22;92393;-71
2022/02/04 11:52:42;;;;;;;5.97;5.38;;;12.00;77.10;;;;;;6155366;22;93348;-72
2022/02/04 11:55:09;;;;;;;6.13;5.63;;;12.10;76.70;;;;;;6155563;22;92922;-72
2022/02/04 11:57:57;;;;;;;6.20;5.70;;;12.30;76.40;;;;;;6155161;22;92299;-72
2022/02/04 12:00:36;;;;;;;5.65;5.10;;;12.40;76.10;;;;;;6104704;22;91980;-72
2022/02/04 12:03:29;;;;;;;6.47;5.22;;;12.60;75.50;;;;;;6155646;22;93142;-71
2022/02/04 12:05:56;;;;;;;5.35;4.85;;;12.60;75.20;;;;;;6128968;22;95631;-72
2022/02/04 12:08:24;;;;;;;6.25;5.68;;;12.70;75.10;;;;;;6102995;22;94795;-71
2022/02/04 12:10:56;;;;;;;5.28;4.88;;;12.80;74.20;;;;;;6155909;22;92299;-72
2022/02/04 12:13:24;;;;;;;5.20;4.80;;;12.80;74.20;;;;;;6128596;22;94909;-71
2022/02/04 12:15:58;;;;;;;6.68;4.43;;;12.80;74.40;;;;;;6130445;22;92419;-72
2022/02/04 12:18:34;;;;;;;6.15;4.90;;;12.80;74.00;;;;;;6155453;22;92729;-72
2022/02/04 12:21:03;;;;;;;5.18;4.75;;;12.80;73.50;;;;;;6155903;22;92674;-72
2022/02/04 12:23:33;;;;;;;5.18;4.68;;;12.70;74.00;;;;;;6104065;22;95581;-71
2022/02/04 12:26:11;;;;;;;5.32;4.85;;;12.60;74.20;;;;;;6155601;22;92921;-72
2022/02/04 12:28:55;;;;;;;5.53;4.75;;;12.60;73.80;;;;;;6155624;22;92305;-72
2022/02/04 12:31:29;;;;;;;4.85;4.45;;;12.70;73.70;;;;;;6155824;22;92363;-72
2022/02/04 12:34:10;;;;;;;5.10;4.60;;;12.60;73.90;;;;;;6154021;22;95724;-71
2022/02/04 12:37:06;;;;;;;5.50;5.00;;;12.60;74.20;;;;;;6155088;22;95298;-72
2022/02/04 12:39:34;;;;;;;5.03;4.45;;;12.50;73.90;;;;;;6116296;22;92567;-72
2022/02/04 12:42:03;;;;;;;4.93;4.53;;;12.40;74.50;;;;;;6129141;22;92477;-72
2022/02/04 12:44:36;;;;;;;4.68;4.20;;;12.40;74.70;;;;;;6125077;23;93040;-72
2022/02/04 12:47:12;;;;;;;6.63;4.70;;;12.40;74.70;;;;;;6125563;23;92928;-71
2022/02/04 12:49:54;;;;;;;5.63;4.72;;;12.30;74.60;;;;;;6125490;23;92317;-71
2022/02/04 12:52:35;;;;;;;4.60;4.10;;;12.30;75.20;;;;;;6126092;23;91599;-72
2022/02/04 13:11:03;;;;;;;4.25;3.88;;;12.20;75.40;;;;;;6099373;23;92852;-72
2022/02/04 13:13:34;;;;;;;3.85;3.55;;;12.30;75.00;;;;;;6125437;23;92362;-71
2022/02/04 13:16:01;;;;;;;4.32;3.67;;;12.30;75.60;;;;;;6125168;23;93165;-72
2022/02/04 13:18:28;;;;;;;5.63;3.67;;;12.30;75.50;;;;;;6099551;23;92838;-72
2022/02/04 13:20:57;;;;;;;3.90;3.60;;;12.20;75.70;;;;;;6124670;23;97454;-72
2022/02/04 13:23:28;;;;;;;3.97;3.65;;;12.20;75.50;;;;;;6125494;23;92412;-71
2022/02/04 13:26:04;;;;;;;5.45;4.35;;;12.10;75.70;;;;;;6072117;23;103491;-72
2022/02/04 13:28:33;;;;;;;4.93;4.45;;;12.10;76.10;;;;;;6125070;23;95389;-72
2022/02/04 13:31:05;;;;;;;5.32;4.65;;;12.00;77.00;;;;;;6125450;23;92532;-71
2022/02/04 13:33:46;;;;;;;4.68;4.22;;;11.90;77.50;;;;;;6125445;23;92300;-72
2022/02/04 13:36:36;;;;;;;4.25;3.85;;;11.90;78.70;;;;;;6124946;23;93207;-71
2022/02/04 13:44:33;;;;;;;5.45;4.93;;;11.40;80.90;;;;;;6125777;23;91695;-72
2022/02/04 14:00:56;;;;;;;5.70;5.05;;;11.20;82.50;;;;;;6098265;23;95485;-72
2022/02/04 14:03:42;;;;;;;5.60;5.20;;;11.10;82.90;;;;;;6125361;23;92397;-72
2022/02/04 14:06:17;;;;;;;5.15;4.63;;;11.00;83.40;;;;;;6125263;23;92671;-71
2022/02/04 14:11:36;;;;;;;6.60;6.00;;;10.90;84.30;;;;;;6125270;23;93089;-71
2022/02/04 14:14:21;;;;;;;6.05;4.15;;;10.80;84.80;;;;;;6124762;23;92352;-72
2022/02/04 14:16:55;;;;;;;3.20;1.45;;;10.80;84.90;;;;;;6124590;23;92380;-72
2022/02/04 14:19:24;;;;;;;3.58;1.00;;;10.40;82.30;;;;;;6096934;23;95488;-72
2022/02/04 14:21:52;;;;;;;2.28;0.95;;;9.90;84.70;;;;;;6125278;23;95052;-72
2022/02/04 14:24:21;;;;;;;2.47;1.02;;;9.30;84.00;;;;;;6100344;23;92836;-74
2022/02/04 14:26:52;;;;;;;0.40;0.40;;;8.80;83.80;;;;;;6098965;23;92536;-72
2022/02/04 15:01:30;;;;;;;0.95;0.95;;;5.40;93.50;;;;;;6155560;22;93176;-72
2022/02/04 15:04:06;;;;;;;1.40;0.95;;;5.40;93.00;;;;;;6156147;22;91791;-72
2022/02/04 15:06:38;;;;;;;1.10;1.00;;;5.40;93.50;;;;;;6129627;22;92895;-73
2022/02/04 15:09:09;;;;;;;1.65;0.70;;;5.40;93.70;;;;;;6155839;22;92384;-72
2022/02/04 15:11:43;;;;;;;0.77;0.40;;;5.50;93.90;;;;;;6103009;22;98396;-72
2022/02/04 15:14:11;;;;;;;0.40;0.40;;;5.50;93.60;;;;;;6155611;22;95355;-72
2022/02/04 15:16:39;;;;;;;0.82;0.60;;;5.50;93.10;;;;;;6155882;22;92278;-73
2022/02/04 15:19:06;;;;;;;0.70;0.30;;;5.50;93.30;;;;;;6155599;22;92263;-72
2022/02/04 15:21:33;;;;;;;0.52;0.50;;;5.50;93.00;;;;;;6104387;22;95682;-73
2022/02/04 15:24:01;;;;;;;0.50;0.50;;;5.40;92.40;;;;;;6155472;22;92856;-72
2022/02/04 15:26:29;;;;;;;0.45;0.45;;;5.40;92.60;;;;;;6156012;22;92336;-73
2022/02/04 15:29:07;;;;;;;0.80;0.80;;;5.40;92.70;;;;;;6156260;22;91614;-73
2022/02/04 15:31:42;;;;;;;0.40;0.40;;;5.40;92.80;;;;;;6128991;22;96231;-73
2022/02/04 15:34:09;;;;;;;0.40;0.40;;;5.40;92.90;;;;;;6128759;22;92857;-72
2022/02/04 15:36:45;;;;;;;0.73;0.70;;;5.40;92.70;;;;;;6154452;22;95127;-72
2022/02/04 15:39:16;;;;;;;0.80;0.60;;;5.30;92.30;;;;;;6129619;22;92719;-73
2022/02/04 15:41:52;;;;;;;0.50;0.50;;;5.30;93.00;;;;;;6129077;22;95759;-73
2022/02/04 15:50:30;;;;;;;1.23;1.13;;;5.40;93.30;;;;;;6034557;23;92887;-73
2022/02/04 15:58:27;;;;;;;0.60;0.60;;;5.50;92.90;;;;;;6133807;22;92753;-73
2022/02/04 16:04:25;;;;;;;0.60;0.60;;;5.40;92.50;;;;;;6154081;22;95527;-73
2022/02/04 16:06:20;;;;;;;0.60;0.57;;;5.40;92.50;;;;;;6115205;22;97913;-72
2022/02/04 16:08:49;;;;;;;1.50;1.27;;;5.40;92.30;;;;;;6156009;22;92845;-72
2022/02/04 16:14:09;;;;;;;0.85;0.85;;;5.40;92.40;;;;;;6155285;22;93097;-73
2022/02/04 16:16:44;;;;;;;1.63;1.00;;;5.40;92.50;;;;;;6155524;22;93164;-72
2022/02/04 16:19:27;;;;;;;1.90;0.80;;;5.40;92.60;;;;;;6129322;22;92342;-72
2022/02/04 16:24:51;;;;;;;1.17;1.00;;;5.50;92.50;;;;;;6155571;22;93881;-72
2022/02/04 16:30:02;;;;;;;0.93;0.90;;;5.60;92.60;;;;;;6154148;22;94678;-72
2022/02/04 16:32:30;;;;;;;0.95;0.80;;;5.60;92.50;;;;;;6155896;22;92811;-72
2022/02/04 16:35:00;;;;;;;1.77;1.13;;;5.70;92.30;;;;;;6155465;22;93086;-72
2022/02/04 16:37:31;;;;;;;1.17;0.90;;;5.70;92.40;;;;;;6155541;22;92828;-72
2022/02/04 16:39:59;;;;;;;2.45;1.00;;;5.80;92.30;;;;;;6105118;22;92398;-72
2022/02/04 16:42:28;;;;;;;0.93;0.90;;;5.80;92.30;;;;;;6100810;22;92595;-72
2022/02/04 16:44:56;;;;;;;1.02;0.90;;;5.80;91.60;;;;;;6155265;22;93379;-72
2022/02/04 16:47:23;;;;;;;0.93;0.90;;;5.80;92.00;;;;;;6129336;22;92854;-72
2022/02/04 16:49:50;;;;;;;1.23;0.98;;;5.80;92.10;;;;;;6156129;22;92863;-72
2022/02/04 16:52:17;;;;;;;3.60;1.52;;;5.90;92.20;;;;;;6155352;22;92367;-73
2022/02/04 16:54:45;;;;;;;3.65;1.10;;;5.90;92.20;;;;;;6127500;22;96876;-72
2022/02/04 16:57:14;;;;;;;3.55;1.38;;;6.00;92.30;;;;;;6154800;22;95248;-72
2022/02/04 16:59:41;;;;;;;3.60;1.10;;;6.00;92.10;;;;;;6155701;22;92424;-73
2022/02/04 17:02:09;;;;;;;2.67;1.02;;;6.00;92.00;;;;;;6155335;22;92466;-72
2022/02/04 17:04:36;;;;;;;2.00;1.17;;;6.00;91.90;;;;;;6103656;22;95903;-73
2022/02/04 17:07:06;;;;;;;2.35;1.30;;;6.00;91.90;;;;;;6128427;22;94528;-72
2022/02/04 17:09:41;;;;;;;1.83;1.00;;;5.90;91.90;;;;;;6104340;22;92464;-73
2022/02/04 17:12:11;;;;;;;1.45;0.90;;;6.00;92.10;;;;;;6104068;22;91745;-72
2022/02/04 17:14:39;;;;;;;2.53;1.00;;;6.00;91.70;;;;;;6129217;22;93148;-73
2022/02/04 17:17:07;;;;;;;2.17;1.13;;;5.90;91.60;;;;;;6128109;22;93823;-72
2022/02/04 17:19:52;;;;;;;3.63;1.23;;;5.90;91.60;;;;;;6127223;22;94879;-72
2022/02/04 17:22:19;;;;;;;;;;;5.90;91.70;;;;;;6104425;22;92474;-72
2022/02/04 17:24:49;;;;;;;2.88;1.00;;;5.80;91.80;;;;;;6130143;22;95396;-72
2022/02/04 17:27:16;;;;;;;3.80;0.93;;;5.80;91.70;;;;;;6155035;22;94374;-72
2022/02/04 17:29:43;;;;;;;3.08;1.50;;;5.80;91.80;;;;;;6155610;22;92619;-72
2022/02/04 17:32:10;;;;;;;5.53;1.05;;;5.80;91.80;;;;;;6155128;22;92375;-72
2022/02/04 17:34:43;;;;;;;3.28;1.02;;;5.90;91.80;;;;;;6155191;22;93133;-73
2022/02/04 17:37:10;;;;;;;4.30;1.00;;;5.90;91.80;;;;;;6128242;22;95452;-72
2022/02/04 17:39:38;;;;;;;2.63;1.33;;;5.90;91.60;;;;;;6128552;22;92498;-73
2022/02/04 17:42:05;;;;;;;3.28;1.10;;;5.90;91.70;;;;;;6103818;22;92532;-72
2022/02/04 17:44:32;;;;;;;4.03;1.30;;;5.90;91.70;;;;;;6123359;22;98045;-72
2022/02/04 17:47:00;;;;;;;5.47;1.45;;;5.90;91.50;;;;;;6128981;22;95301;-72
2022/02/04 17:49:35;;;;;;;3.15;1.17;;;5.90;91.50;;;;;;6128567;22;92425;-72
2022/02/04 17:52:19;;;;;;;3.70;1.38;;;5.90;91.50;;;;;;6155348;22;92378;-73
2022/02/04 17:54:56;;;;;;;;;;;5.90;91.40;;;;;;6155530;22;93220;-80
2022/02/04 17:57:46;;;;;;;1.75;1.20;;;5.80;91.10;;;;;;6129158;22;95462;-79
2022/02/04 18:06:09;;;;;;;6.57;2.33;;;5.80;91.40;;;;;;6104751;22;93086;-80
2022/02/04 18:08:36;;;;;;;2.55;1.30;;;5.70;91.20;;;;;;6155320;22;92399;-80
2022/02/04 18:11:04;;;;;;;3.00;1.52;;;5.70;91.30;;;;;;6127595;22;94871;-80
2022/02/04 18:13:32;;;;;;;5.75;1.65;;;5.70;91.30;;;;;;6154787;22;92464;-80
2022/02/04 18:16:03;;;;;;;5.93;1.70;;;5.60;91.30;;;;;;6154841;22;93227;-80
2022/02/04 18:18:30;;;;;;;5.35;1.65;;;5.70;91.40;;;;;;6154468;22;92914;-80
2022/02/04 18:21:01;;;;;;;5.15;1.52;;;5.60;91.10;;;;;;6128787;22;92481;-80
2022/02/04 18:23:30;;;;;;;2.70;1.35;;;5.60;90.80;;;;;;6154948;22;92904;-80
2022/02/04 18:25:58;;;;;;;7.00;1.90;;;5.50;90.70;;;;;;6127967;22;94014;-80
2022/02/04 18:28:26;;;;;;;3.95;1.88;;;5.50;90.80;;;;;;6128699;22;93468;-80
2022/02/04 18:30:55;;;;;;;2.80;1.20;;;5.40;90.60;;;;;;6128647;22;94730;-80
2022/02/04 18:33:22;;;;;;;7.80;1.88;;;5.40;90.60;;;;;;6128503;22;93013;-80
2022/02/04 18:35:57;;;;;;;5.60;1.27;;;5.30;90.60;;;;;;6153022;22;95530;-80
2022/02/04 18:38:32;;;;;;;4.75;1.50;;;5.30;90.60;;;;;;6154200;22;95297;-80
2022/02/04 18:43:40;;;;;;;5.45;1.45;;;5.20;90.70;;;;;;6153805;22;92796;-79
2022/02/04 18:48:49;;;;;;;8.73;1.83;;;5.10;90.80;;;;;;6154365;22;92913;-80
2022/02/04 18:51:25;;;;;;;5.40;1.33;;;5.10;90.80;;;;;;6131620;22;92393;-80
2022/02/04 18:54:10;;;;;;;5.40;1.38;;;5.10;90.60;;;;;;6155100;22;91633;-80
2022/02/04 18:59:14;;;;;;;5.00;1.10;;;5.10;90.80;;;;;;6154486;22;92737;-80
2022/02/04 19:01:41;;;;;;;4.18;1.30;;;5.10;90.90;;;;;;6153212;22;94732;-80
2022/02/04 19:04:13;;;;;;;5.22;1.50;;;5.00;90.80;;;;;;6128439;22;92343;-80
2022/02/04 19:06:45;;;;;;;6.75;1.50;;;4.90;90.70;;;;;;6129179;22;94431;-80
2022/02/04 19:09:12;;;;;;;6.07;2.05;;;5.00;91.20;;;;;;6106195;22;92923;-80
2022/02/04 19:11:47;;;;;;;5.20;1.67;;;4.90;91.20;;;;;;6129077;22;92442;-80
2022/02/04 19:14:32;;;;;;;8.27;2.05;;;5.00;91.10;;;;;;6156007;22;92882;-79
2022/02/04 19:17:14;;;;;;;6.13;1.88;;;5.00;91.30;;;;;;6104405;22;95665;-80
2022/02/04 19:24:44;;;;;;;8.75;1.95;;;5.20;91.50;;;;;;6128687;22;93260;-80
2022/02/04 19:27:14;;;;;;;9.50;1.95;;;5.20;91.30;;;;;;6129581;22;95621;-79
2022/02/04 19:29:47;;;;;;;9.10;2.47;;;5.30;91.20;;;;;;6129320;22;95544;-80
2022/02/04 19:32:15;;;;;;;6.68;1.58;;;5.30;91.10;;;;;;6156120;22;92429;-79
2022/02/04 19:34:43;;;;;;;4.55;1.60;;;5.40;90.90;;;;;;6155401;22;93439;-79
2022/02/04 19:37:10;;;;;;;5.03;1.33;;;5.40;90.70;;;;;;6104163;22;95682;-80
2022/02/04 19:39:39;;;;;;;3.70;1.67;;;5.40;90.50;;;;;;6155729;22;92975;-80
2022/02/04 19:42:19;;;;;;;12.45;1.85;;;5.40;90.60;;;;;;6130215;22;92456;-80
2022/02/04 19:44:52;;;;;;;8.20;1.58;;;5.40;90.50;;;;;;6132436;22;91654;-80
2022/02/04 19:47:27;;;;;;;4.45;1.70;;;5.40;90.60;;;;;;6156088;22;93786;-79
2022/02/04 19:52:43;;;;;;;7.53;2.63;;;5.30;90.60;;;;;;6129866;22;94822;-80
2022/02/04 20:25:11;;;;;;;14.15;2.28;;;4.90;91.20;;;;;;6155748;22;92294;-80
2022/02/04 20:27:41;;;;;;;12.55;2.67;;;4.80;91.10;;;;;;6129242;22;92392;-79
2022/02/04 20:30:10;;;;;;;12.25;3.15;;;4.80;91.30;;;;;;6130331;22;93290;-79